sensor_id;sensor_type;location;lat;lon;timestamp;temperature;humidity
13253;DHT22;6693;54.370;10.132;2022-07-29T00:01:16;19.20;1.00
13253;DHT22;6693;54.370;10.132;2022-07-29T00:03:18;19.10;58.70
13253;DHT22;6693;54.370;10.132;2022-07-29T00:05:20;18.90;99.90
13253;DHT22;6693;54.370;10.132;2022-07-29T00:07:22;18.90;99.90
13253;DHT22;6693;54.370;10.132;2022-07-29T00:09:25;18.80;99.90
13253;DHT22;6693;54.370;10.132;2022-07-29T00:11:26;18.80;99.90
13253;DHT22;6693;54.370;10.132;2022-07-29T00:13:28;18.80;99.90
13253;DHT22;6693;54.370;10.132;2022-07-29T00:15:29;18.80;99.90
13253;DHT22;6693;54.370;10.132;2022-07-29T00:17:31;19.20;99.90
13253;DHT22;6693;54.370;10.132;2022-07-29T00:19:34;18.80;99.90
13253;DHT22;6693;54.370;10.132;2022-07-29T00:21:36;18.80;99.90
13253;DHT22;6693;54.370;10.132;2022-07-29T00:23:37;18.70;99.90
13253;DHT22;6693;54.370;10.132;2022-07-29T00:25:41;18.70;99.90
13253;DHT22;6693;54.370;10.132;2022-07-29T00:27:42;18.60;99.90
13253;DHT22;6693;54.370;10.132;2022-07-29T00:29:46;18.60;99.90
13253;DHT22;6693;54.370;10.132;2022-07-29T00:31:47;18.60;99.90
13253;DHT22;6693;54.370;10.132;2022-07-29T00:33:49;18.70;99.90
13253;DHT22;6693;54.370;10.132;2022-07-29T00:35:51;18.60;99.90
13253;DHT22;6693;54.370;10.132;2022-07-29T00:37:51;20.10;1.00
13253;DHT22;6693;54.370;10.132;2022-07-29T00:39:53;18.40;1.00
13253;DHT22;6693;54.370;10.132;2022-07-29T00:41:56;18.30;1.00
13253;DHT22;6693;54.370;10.132;2022-07-29T00:43:58;18.20;1.00
13253;DHT22;6693;54.370;10.132;2022-07-29T00:45:59;18.20;1.00
13253;DHT22;6693;54.370;10.132;2022-07-29T00:48:01;18.10;1.00
13253;DHT22;6693;54.370;10.132;2022-07-29T00:50:06;18.10;1.00
13253;DHT22;6693;54.370;10.132;2022-07-29T00:52:09;18.00;1.00
13253;DHT22;6693;54.370;10.132;2022-07-29T00:54:12;17.80;1.00
13253;DHT22;6693;54.370;10.132;2022-07-29T00:56:14;17.70;1.00
13253;DHT22;6693;54.370;10.132;2022-07-29T00:58:17;17.70;1.00
13253;DHT22;6693;54.370;10.132;2022-07-29T01:00:21;17.70;1.00
13253;DHT22;6693;54.370;10.132;2022-07-29T01:02:23;17.70;1.00
13253;DHT22;6693;54.370;10.132;2022-07-29T01:04:25;17.70;1.00
13253;DHT22;6693;54.370;10.132;2022-07-29T01:06:27;17.70;1.00
13253;DHT22;6693;54.370;10.132;2022-07-29T01:08:28;17.60;95.50
13253;DHT22;6693;54.370;10.132;2022-07-29T01:10:32;17.50;99.90
13253;DHT22;6693;54.370;10.132;2022-07-29T01:12:35;17.50;99.90
13253;DHT22;6693;54.370;10.132;2022-07-29T01:14:40;17.60;99.90
13253;DHT22;6693;54.370;10.132;2022-07-29T01:16:53;17.70;99.90
13253;DHT22;6693;54.370;10.132;2022-07-29T01:19:00;17.70;45.20
13253;DHT22;6693;54.370;10.132;2022-07-29T01:21:24;17.60;99.90
13253;DHT22;6693;54.370;10.132;2022-07-29T01:24:02;17.50;99.90
13253;DHT22;6693;54.370;10.132;2022-07-29T01:26:45;17.50;99.90
13253;DHT22;6693;54.370;10.132;2022-07-29T01:28:56;17.40;99.90
13253;DHT22;6693;54.370;10.132;2022-07-29T01:31:00;17.40;99.90
13253;DHT22;6693;54.370;10.132;2022-07-29T01:33:07;17.30;99.90
13253;DHT22;6693;54.370;10.132;2022-07-29T01:35:17;17.40;99.90
13253;DHT22;6693;54.370;10.132;2022-07-29T01:37:23;17.40;99.90
13253;DHT22;6693;54.370;10.132;2022-07-29T01:39:29;17.40;99.90
13253;DHT22;6693;54.370;10.132;2022-07-29T01:41:33;17.10;99.90
13253;DHT22;6693;54.370;10.132;2022-07-29T01:43:38;17.50;99.90
13253;DHT22;6693;54.370;10.132;2022-07-29T01:45:46;17.50;99.90
13253;DHT22;6693;54.370;10.132;2022-07-29T01:47:54;17.50;99.90
13253;DHT22;6693;54.370;10.132;2022-07-29T01:49:58;17.50;99.90
13253;DHT22;6693;54.370;10.132;2022-07-29T01:52:04;17.50;99.90
13253;DHT22;6693;54.370;10.132;2022-07-29T01:54:10;17.50;99.90
13253;DHT22;6693;54.370;10.132;2022-07-29T01:56:14;17.40;99.90
13253;DHT22;6693;54.370;10.132;2022-07-29T01:58:18;17.30;99.90
13253;DHT22;6693;54.370;10.132;2022-07-29T02:00:20;17.40;99.90
13253;DHT22;6693;54.370;10.132;2022-07-29T02:02:24;17.30;99.90
13253;DHT22;6693;54.370;10.132;2022-07-29T02:04:28;17.10;1.00
13253;DHT22;6693;54.370;10.132;2022-07-29T02:06:31;16.90;1.00
13253;DHT22;6693;54.370;10.132;2022-07-29T02:08:34;16.90;1.00
13253;DHT22;6693;54.370;10.132;2022-07-29T02:10:38;16.90;1.00
13253;DHT22;6693;54.370;10.132;2022-07-29T02:12:42;16.80;1.00
13253;DHT22;6693;54.370;10.132;2022-07-29T02:14:47;16.80;1.00
13253;DHT22;6693;54.370;10.132;2022-07-29T02:16:52;16.70;1.00
13253;DHT22;6693;54.370;10.132;2022-07-29T02:18:56;16.70;1.00
13253;DHT22;6693;54.370;10.132;2022-07-29T02:20:59;16.80;1.00
13253;DHT22;6693;54.370;10.132;2022-07-29T02:23:02;16.80;1.00
13253;DHT22;6693;54.370;10.132;2022-07-29T02:25:06;16.90;1.00
13253;DHT22;6693;54.370;10.132;2022-07-29T02:27:09;16.90;1.00
13253;DHT22;6693;54.370;10.132;2022-07-29T02:29:12;16.80;1.00
13253;DHT22;6693;54.370;10.132;2022-07-29T02:31:15;16.70;1.00
13253;DHT22;6693;54.370;10.132;2022-07-29T02:33:20;17.70;1.00
13253;DHT22;6693;54.370;10.132;2022-07-29T02:35:24;16.80;1.00
13253;DHT22;6693;54.370;10.132;2022-07-29T02:37:27;16.80;1.00
13253;DHT22;6693;54.370;10.132;2022-07-29T02:39:30;16.90;1.00
13253;DHT22;6693;54.370;10.132;2022-07-29T02:41:37;16.80;1.00
13253;DHT22;6693;54.370;10.132;2022-07-29T02:43:42;16.70;1.00
13253;DHT22;6693;54.370;10.132;2022-07-29T02:45:45;16.80;1.00
13253;DHT22;6693;54.370;10.132;2022-07-29T02:47:49;16.80;1.00
13253;DHT22;6693;54.370;10.132;2022-07-29T02:49:55;17.00;1.00
13253;DHT22;6693;54.370;10.132;2022-07-29T02:52:02;16.90;1.00
13253;DHT22;6693;54.370;10.132;2022-07-29T02:54:07;16.80;1.00
13253;DHT22;6693;54.370;10.132;2022-07-29T02:56:13;16.80;1.00
13253;DHT22;6693;54.370;10.132;2022-07-29T02:58:23;17.40;1.00
13253;DHT22;6693;54.370;10.132;2022-07-29T03:00:31;16.70;1.00
13253;DHT22;6693;54.370;10.132;2022-07-29T03:02:35;16.60;11.50
13253;DHT22;6693;54.370;10.132;2022-07-29T03:04:40;16.70;52.70
13253;DHT22;6693;54.370;10.132;2022-07-29T03:06:43;16.70;19.60
13253;DHT22;6693;54.370;10.132;2022-07-29T03:08:47;16.70;1.00
13253;DHT22;6693;54.370;10.132;2022-07-29T03:10:50;16.70;15.00
13253;DHT22;6693;54.370;10.132;2022-07-29T03:12:53;16.70;9.80
13253;DHT22;6693;54.370;10.132;2022-07-29T03:14:55;16.60;99.90
13253;DHT22;6693;54.370;10.132;2022-07-29T03:16:58;16.60;99.90
13253;DHT22;6693;54.370;10.132;2022-07-29T03:19:00;16.60;99.90
13253;DHT22;6693;54.370;10.132;2022-07-29T03:21:03;16.50;99.90
13253;DHT22;6693;54.370;10.132;2022-07-29T03:23:05;16.40;99.90
13253;DHT22;6693;54.370;10.132;2022-07-29T03:25:09;16.40;99.90
13253;DHT22;6693;54.370;10.132;2022-07-29T03:27:11;16.50;99.90
13253;DHT22;6693;54.370;10.132;2022-07-29T03:29:12;16.60;99.90
13253;DHT22;6693;54.370;10.132;2022-07-29T03:31:14;16.50;99.90
13253;DHT22;6693;54.370;10.132;2022-07-29T03:33:16;16.70;99.90
13253;DHT22;6693;54.370;10.132;2022-07-29T03:35:18;16.70;99.90
13253;DHT22;6693;54.370;10.132;2022-07-29T03:37:19;16.70;99.90
13253;DHT22;6693;54.370;10.132;2022-07-29T03:39:24;16.70;99.90
13253;DHT22;6693;54.370;10.132;2022-07-29T03:41:28;16.80;99.90
13253;DHT22;6693;54.370;10.132;2022-07-29T03:43:34;16.60;99.90
13253;DHT22;6693;54.370;10.132;2022-07-29T03:45:37;16.50;99.90
13253;DHT22;6693;54.370;10.132;2022-07-29T03:47:43;16.60;99.90
13253;DHT22;6693;54.370;10.132;2022-07-29T03:49:49;16.70;99.90
13253;DHT22;6693;54.370;10.132;2022-07-29T03:51:51;16.70;1.00
13253;DHT22;6693;54.370;10.132;2022-07-29T03:53:53;16.80;1.00
13253;DHT22;6693;54.370;10.132;2022-07-29T03:55:58;16.90;1.00
13253;DHT22;6693;54.370;10.132;2022-07-29T03:58:02;16.80;1.00
13253;DHT22;6693;54.370;10.132;2022-07-29T04:00:05;16.90;1.00
13253;DHT22;6693;54.370;10.132;2022-07-29T04:02:09;17.00;1.00
13253;DHT22;6693;54.370;10.132;2022-07-29T04:04:12;17.00;1.00
13253;DHT22;6693;54.370;10.132;2022-07-29T04:06:14;17.10;1.00
13253;DHT22;6693;54.370;10.132;2022-07-29T04:08:16;17.10;1.00
13253;DHT22;6693;54.370;10.132;2022-07-29T04:10:18;17.20;1.00
13253;DHT22;6693;54.370;10.132;2022-07-29T04:12:20;17.20;1.00
13253;DHT22;6693;54.370;10.132;2022-07-29T04:14:23;17.30;1.00
13253;DHT22;6693;54.370;10.132;2022-07-29T04:16:25;17.30;1.00
13253;DHT22;6693;54.370;10.132;2022-07-29T04:18:27;17.20;1.00
13253;DHT22;6693;54.370;10.132;2022-07-29T04:20:28;17.30;1.00
13253;DHT22;6693;54.370;10.132;2022-07-29T04:22:30;17.40;1.00
13253;DHT22;6693;54.370;10.132;2022-07-29T04:24:32;17.50;1.00
13253;DHT22;6693;54.370;10.132;2022-07-29T04:26:34;17.50;1.00
13253;DHT22;6693;54.370;10.132;2022-07-29T04:28:36;17.50;1.00
13253;DHT22;6693;54.370;10.132;2022-07-29T04:30:41;17.60;1.00
13253;DHT22;6693;54.370;10.132;2022-07-29T04:32:42;17.60;1.00
13253;DHT22;6693;54.370;10.132;2022-07-29T04:34:44;17.70;1.00
13253;DHT22;6693;54.370;10.132;2022-07-29T04:36:46;17.70;1.00
13253;DHT22;6693;54.370;10.132;2022-07-29T04:38:48;17.70;1.00
13253;DHT22;6693;54.370;10.132;2022-07-29T04:40:50;17.70;1.00
13253;DHT22;6693;54.370;10.132;2022-07-29T04:42:51;17.70;1.00
13253;DHT22;6693;54.370;10.132;2022-07-29T04:44:53;17.80;1.00
13253;DHT22;6693;54.370;10.132;2022-07-29T04:46:57;17.80;1.00
13253;DHT22;6693;54.370;10.132;2022-07-29T04:48:58;17.80;1.00
13253;DHT22;6693;54.370;10.132;2022-07-29T04:51:00;17.90;1.00
13253;DHT22;6693;54.370;10.132;2022-07-29T04:53:02;17.90;1.00
13253;DHT22;6693;54.370;10.132;2022-07-29T04:55:04;18.00;1.00
13253;DHT22;6693;54.370;10.132;2022-07-29T04:57:06;18.00;1.00
13253;DHT22;6693;54.370;10.132;2022-07-29T04:59:08;18.00;1.00
13253;DHT22;6693;54.370;10.132;2022-07-29T05:01:10;18.00;1.00
13253;DHT22;6693;54.370;10.132;2022-07-29T05:03:13;18.00;1.00
13253;DHT22;6693;54.370;10.132;2022-07-29T05:05:14;18.10;1.00
13253;DHT22;6693;54.370;10.132;2022-07-29T05:07:16;18.10;1.00
13253;DHT22;6693;54.370;10.132;2022-07-29T05:09:17;18.20;1.00
13253;DHT22;6693;54.370;10.132;2022-07-29T05:11:19;18.20;1.00
13253;DHT22;6693;54.370;10.132;2022-07-29T05:13:21;18.30;1.00
13253;DHT22;6693;54.370;10.132;2022-07-29T05:15:22;18.30;1.00
13253;DHT22;6693;54.370;10.132;2022-07-29T05:17:24;18.30;1.00
13253;DHT22;6693;54.370;10.132;2022-07-29T05:19:27;18.30;1.00
13253;DHT22;6693;54.370;10.132;2022-07-29T05:21:29;18.40;1.00
13253;DHT22;6693;54.370;10.132;2022-07-29T05:23:30;18.40;1.00
13253;DHT22;6693;54.370;10.132;2022-07-29T05:25:32;18.50;1.00
13253;DHT22;6693;54.370;10.132;2022-07-29T05:27:35;18.50;1.00
13253;DHT22;6693;54.370;10.132;2022-07-29T05:29:36;18.60;1.00
13253;DHT22;6693;54.370;10.132;2022-07-29T05:31:38;18.60;1.00
13253;DHT22;6693;54.370;10.132;2022-07-29T05:33:40;18.60;1.00
13253;DHT22;6693;54.370;10.132;2022-07-29T05:35:43;18.70;1.00
13253;DHT22;6693;54.370;10.132;2022-07-29T05:37:44;18.70;43.80
13253;DHT22;6693;54.370;10.132;2022-07-29T05:39:46;18.70;1.00
13253;DHT22;6693;54.370;10.132;2022-07-29T05:41:48;18.80;27.50
13253;DHT22;6693;54.370;10.132;2022-07-29T05:43:49;18.90;19.30
13253;DHT22;6693;54.370;10.132;2022-07-29T05:45:51;18.90;38.50
13253;DHT22;6693;54.370;10.132;2022-07-29T05:47:52;18.90;1.00
13253;DHT22;6693;54.370;10.132;2022-07-29T05:49:54;18.90;1.00
13253;DHT22;6693;54.370;10.132;2022-07-29T05:51:57;19.10;3.10
13253;DHT22;6693;54.370;10.132;2022-07-29T05:53:59;19.10;84.60
13253;DHT22;6693;54.370;10.132;2022-07-29T05:56:03;19.20;1.20
13253;DHT22;6693;54.370;10.132;2022-07-29T05:58:04;19.20;1.00
13253;DHT22;6693;54.370;10.132;2022-07-29T06:00:07;19.30;1.00
13253;DHT22;6693;54.370;10.132;2022-07-29T06:02:09;19.20;1.00
13253;DHT22;6693;54.370;10.132;2022-07-29T06:04:11;19.20;1.00
13253;DHT22;6693;54.370;10.132;2022-07-29T06:06:13;19.20;1.00
13253;DHT22;6693;54.370;10.132;2022-07-29T06:08:16;19.30;1.00
13253;DHT22;6693;54.370;10.132;2022-07-29T06:10:18;19.40;1.00
13253;DHT22;6693;54.370;10.132;2022-07-29T06:12:20;19.50;1.00
13253;DHT22;6693;54.370;10.132;2022-07-29T06:14:22;19.60;1.00
13253;DHT22;6693;54.370;10.132;2022-07-29T06:16:24;19.50;1.00
13253;DHT22;6693;54.370;10.132;2022-07-29T06:18:26;19.60;1.00
13253;DHT22;6693;54.370;10.132;2022-07-29T06:20:28;19.70;18.30
13253;DHT22;6693;54.370;10.132;2022-07-29T06:22:30;19.70;19.30
13253;DHT22;6693;54.370;10.132;2022-07-29T06:24:33;19.90;99.90
13253;DHT22;6693;54.370;10.132;2022-07-29T06:26:37;19.90;99.90
13253;DHT22;6693;54.370;10.132;2022-07-29T06:28:39;20.00;99.90
13253;DHT22;6693;54.370;10.132;2022-07-29T06:30:41;20.10;99.90
13253;DHT22;6693;54.370;10.132;2022-07-29T06:32:43;20.10;99.90
13253;DHT22;6693;54.370;10.132;2022-07-29T06:34:44;20.10;1.00
13253;DHT22;6693;54.370;10.132;2022-07-29T06:36:46;20.10;1.00
13253;DHT22;6693;54.370;10.132;2022-07-29T06:38:49;20.00;1.00
13253;DHT22;6693;54.370;10.132;2022-07-29T06:40:52;20.10;1.00
13253;DHT22;6693;54.370;10.132;2022-07-29T06:43:04;20.20;1.00
13253;DHT22;6693;54.370;10.132;2022-07-29T06:45:07;20.20;1.00
13253;DHT22;6693;54.370;10.132;2022-07-29T06:47:08;20.20;1.00
13253;DHT22;6693;54.370;10.132;2022-07-29T06:49:10;20.30;1.00
13253;DHT22;6693;54.370;10.132;2022-07-29T06:51:13;20.40;1.00
13253;DHT22;6693;54.370;10.132;2022-07-29T06:53:15;20.50;1.00
13253;DHT22;6693;54.370;10.132;2022-07-29T06:55:17;20.60;1.00
13253;DHT22;6693;54.370;10.132;2022-07-29T06:57:21;20.60;1.00
13253;DHT22;6693;54.370;10.132;2022-07-29T06:59:22;20.70;1.00
13253;DHT22;6693;54.370;10.132;2022-07-29T07:01:24;20.80;1.00
13253;DHT22;6693;54.370;10.132;2022-07-29T07:03:26;20.90;1.00
13253;DHT22;6693;54.370;10.132;2022-07-29T07:05:28;21.20;1.00
13253;DHT22;6693;54.370;10.132;2022-07-29T07:07:29;21.40;1.00
13253;DHT22;6693;54.370;10.132;2022-07-29T07:09:31;21.40;1.00
13253;DHT22;6693;54.370;10.132;2022-07-29T07:11:33;21.60;1.00
13253;DHT22;6693;54.370;10.132;2022-07-29T07:13:36;21.80;1.00
13253;DHT22;6693;54.370;10.132;2022-07-29T07:15:38;21.80;1.00
13253;DHT22;6693;54.370;10.132;2022-07-29T07:17:39;22.00;1.00
13253;DHT22;6693;54.370;10.132;2022-07-29T07:19:41;21.90;1.00
13253;DHT22;6693;54.370;10.132;2022-07-29T07:21:43;22.00;99.90
13253;DHT22;6693;54.370;10.132;2022-07-29T07:23:45;22.00;99.90
13253;DHT22;6693;54.370;10.132;2022-07-29T07:25:46;22.20;99.90
13253;DHT22;6693;54.370;10.132;2022-07-29T07:27:48;22.30;99.90
13253;DHT22;6693;54.370;10.132;2022-07-29T07:29:51;22.30;99.90
13253;DHT22;6693;54.370;10.132;2022-07-29T07:31:52;22.30;99.90
13253;DHT22;6693;54.370;10.132;2022-07-29T07:33:55;22.50;74.30
13253;DHT22;6693;54.370;10.132;2022-07-29T07:35:57;22.50;1.00
13253;DHT22;6693;54.370;10.132;2022-07-29T07:37:58;22.60;1.00
13253;DHT22;6693;54.370;10.132;2022-07-29T07:40:00;22.50;1.00
13253;DHT22;6693;54.370;10.132;2022-07-29T07:42:02;22.60;1.00
13253;DHT22;6693;54.370;10.132;2022-07-29T07:44:04;22.60;1.00
13253;DHT22;6693;54.370;10.132;2022-07-29T07:46:07;22.80;1.00
13253;DHT22;6693;54.370;10.132;2022-07-29T07:48:09;23.00;1.00
13253;DHT22;6693;54.370;10.132;2022-07-29T07:50:11;23.20;1.00
13253;DHT22;6693;54.370;10.132;2022-07-29T07:52:13;23.40;1.00
13253;DHT22;6693;54.370;10.132;2022-07-29T07:54:15;23.90;1.00
13253;DHT22;6693;54.370;10.132;2022-07-29T07:56:16;23.50;1.00
13253;DHT22;6693;54.370;10.132;2022-07-29T07:58:18;23.80;1.00
13253;DHT22;6693;54.370;10.132;2022-07-29T08:00:20;23.80;99.90
13253;DHT22;6693;54.370;10.132;2022-07-29T08:02:23;23.80;99.90
13253;DHT22;6693;54.370;10.132;2022-07-29T08:04:25;24.00;99.90
13253;DHT22;6693;54.370;10.132;2022-07-29T08:06:27;24.20;99.90
13253;DHT22;6693;54.370;10.132;2022-07-29T08:08:28;24.30;99.90
13253;DHT22;6693;54.370;10.132;2022-07-29T08:10:30;24.40;99.90
13253;DHT22;6693;54.370;10.132;2022-07-29T08:12:49;24.50;99.70
13253;DHT22;6693;54.370;10.132;2022-07-29T08:14:51;24.80;60.50
13253;DHT22;6693;54.370;10.132;2022-07-29T08:16:53;25.00;1.00
13253;DHT22;6693;54.370;10.132;2022-07-29T08:18:56;25.10;1.00
13253;DHT22;6693;54.370;10.132;2022-07-29T08:20:58;25.20;1.00
13253;DHT22;6693;54.370;10.132;2022-07-29T08:23:00;25.50;1.00
13253;DHT22;6693;54.370;10.132;2022-07-29T08:25:02;25.60;1.00
13253;DHT22;6693;54.370;10.132;2022-07-29T08:27:04;25.70;1.00
13253;DHT22;6693;54.370;10.132;2022-07-29T08:29:05;25.80;1.00
13253;DHT22;6693;54.370;10.132;2022-07-29T08:31:07;26.00;1.00
13253;DHT22;6693;54.370;10.132;2022-07-29T08:33:09;26.20;1.00
13253;DHT22;6693;54.370;10.132;2022-07-29T08:35:12;26.20;1.00
13253;DHT22;6693;54.370;10.132;2022-07-29T08:37:13;26.50;1.00
13253;DHT22;6693;54.370;10.132;2022-07-29T08:39:15;26.60;1.00
13253;DHT22;6693;54.370;10.132;2022-07-29T08:41:18;26.60;1.00
13253;DHT22;6693;54.370;10.132;2022-07-29T08:43:20;26.70;1.00
13253;DHT22;6693;54.370;10.132;2022-07-29T08:45:23;26.70;1.00
13253;DHT22;6693;54.370;10.132;2022-07-29T08:47:25;26.80;1.00
13253;DHT22;6693;54.370;10.132;2022-07-29T08:49:29;26.80;99.90
13253;DHT22;6693;54.370;10.132;2022-07-29T08:51:33;26.90;99.90
13253;DHT22;6693;54.370;10.132;2022-07-29T08:53:36;27.00;99.90
13253;DHT22;6693;54.370;10.132;2022-07-29T08:55:39;27.10;99.90
13253;DHT22;6693;54.370;10.132;2022-07-29T08:57:41;26.90;99.90
13253;DHT22;6693;54.370;10.132;2022-07-29T08:59:46;26.60;99.90
13253;DHT22;6693;54.370;10.132;2022-07-29T09:01:48;26.50;99.90
13253;DHT22;6693;54.370;10.132;2022-07-29T09:03:55;26.50;99.90
13253;DHT22;6693;54.370;10.132;2022-07-29T09:05:58;26.20;97.90
13253;DHT22;6693;54.370;10.132;2022-07-29T09:08:01;26.30;52.10
13253;DHT22;6693;54.370;10.132;2022-07-29T09:10:05;26.60;58.80
13253;DHT22;6693;54.370;10.132;2022-07-29T09:12:07;26.70;24.10
13253;DHT22;6693;54.370;10.132;2022-07-29T09:14:11;26.70;1.00
13253;DHT22;6693;54.370;10.132;2022-07-29T09:16:13;26.80;1.00
13253;DHT22;6693;54.370;10.132;2022-07-29T09:18:33;26.90;1.00
13253;DHT22;6693;54.370;10.132;2022-07-29T09:20:35;26.90;1.00
13253;DHT22;6693;54.370;10.132;2022-07-29T09:22:54;27.10;1.00
13253;DHT22;6693;54.370;10.132;2022-07-29T09:24:57;27.20;1.00
13253;DHT22;6693;54.370;10.132;2022-07-29T09:26:59;27.30;1.00
13253;DHT22;6693;54.370;10.132;2022-07-29T09:29:08;27.30;1.00
13253;DHT22;6693;54.370;10.132;2022-07-29T09:31:09;27.50;1.00
13253;DHT22;6693;54.370;10.132;2022-07-29T09:33:11;27.80;1.00
13253;DHT22;6693;54.370;10.132;2022-07-29T09:35:21;27.80;1.00
13253;DHT22;6693;54.370;10.132;2022-07-29T09:37:26;27.80;1.00
13253;DHT22;6693;54.370;10.132;2022-07-29T09:39:30;27.80;1.00
13253;DHT22;6693;54.370;10.132;2022-07-29T09:41:45;27.80;1.00
13253;DHT22;6693;54.370;10.132;2022-07-29T09:43:54;27.80;1.00
13253;DHT22;6693;54.370;10.132;2022-07-29T09:45:59;27.80;1.00
13253;DHT22;6693;54.370;10.132;2022-07-29T09:48:15;27.90;1.00
13253;DHT22;6693;54.370;10.132;2022-07-29T09:50:17;28.00;1.00
13253;DHT22;6693;54.370;10.132;2022-07-29T09:52:24;28.00;1.00
13253;DHT22;6693;54.370;10.132;2022-07-29T09:54:26;28.00;1.00
13253;DHT22;6693;54.370;10.132;2022-07-29T09:56:38;28.00;1.00
13253;DHT22;6693;54.370;10.132;2022-07-29T09:58:41;28.10;1.00
13253;DHT22;6693;54.370;10.132;2022-07-29T10:00:44;28.20;1.00
13253;DHT22;6693;54.370;10.132;2022-07-29T10:02:47;28.10;1.00
13253;DHT22;6693;54.370;10.132;2022-07-29T10:04:48;28.10;1.00
13253;DHT22;6693;54.370;10.132;2022-07-29T10:06:57;28.20;1.00
13253;DHT22;6693;54.370;10.132;2022-07-29T10:09:07;27.90;1.00
13253;DHT22;6693;54.370;10.132;2022-07-29T10:11:10;27.90;1.00
13253;DHT22;6693;54.370;10.132;2022-07-29T10:13:13;27.90;1.00
13253;DHT22;6693;54.370;10.132;2022-07-29T10:15:17;27.90;1.00
13253;DHT22;6693;54.370;10.132;2022-07-29T10:17:19;27.90;1.00
13253;DHT22;6693;54.370;10.132;2022-07-29T10:19:22;27.80;1.00
13253;DHT22;6693;54.370;10.132;2022-07-29T10:21:24;27.70;1.00
13253;DHT22;6693;54.370;10.132;2022-07-29T10:23:26;27.70;1.00
13253;DHT22;6693;54.370;10.132;2022-07-29T10:25:28;27.70;1.00
13253;DHT22;6693;54.370;10.132;2022-07-29T10:27:30;27.70;1.00
13253;DHT22;6693;54.370;10.132;2022-07-29T10:29:32;27.70;1.00
13253;DHT22;6693;54.370;10.132;2022-07-29T10:31:43;27.70;1.00
13253;DHT22;6693;54.370;10.132;2022-07-29T10:33:52;27.70;1.00
13253;DHT22;6693;54.370;10.132;2022-07-29T10:36:05;27.60;1.00
13253;DHT22;6693;54.370;10.132;2022-07-29T10:38:29;27.60;1.00
13253;DHT22;6693;54.370;10.132;2022-07-29T10:40:39;27.70;1.00
13253;DHT22;6693;54.370;10.132;2022-07-29T10:43:10;27.80;1.00
13253;DHT22;6693;54.370;10.132;2022-07-29T10:45:17;27.90;1.00
13253;DHT22;6693;54.370;10.132;2022-07-29T10:47:24;28.00;1.00
13253;DHT22;6693;54.370;10.132;2022-07-29T10:49:27;28.00;1.00
13253;DHT22;6693;54.370;10.132;2022-07-29T10:51:51;27.90;1.00
13253;DHT22;6693;54.370;10.132;2022-07-29T10:53:53;28.00;1.00
13253;DHT22;6693;54.370;10.132;2022-07-29T10:55:55;28.20;1.00
13253;DHT22;6693;54.370;10.132;2022-07-29T10:58:11;28.20;1.00
13253;DHT22;6693;54.370;10.132;2022-07-29T11:00:28;28.30;1.00
13253;DHT22;6693;54.370;10.132;2022-07-29T11:02:46;28.40;1.00
13253;DHT22;6693;54.370;10.132;2022-07-29T11:05:00;27.20;1.00
13253;DHT22;6693;54.370;10.132;2022-07-29T11:07:07;28.60;1.00
13253;DHT22;6693;54.370;10.132;2022-07-29T11:09:15;28.60;1.00
13253;DHT22;6693;54.370;10.132;2022-07-29T11:11:36;28.60;1.00
13253;DHT22;6693;54.370;10.132;2022-07-29T11:13:49;28.80;1.00
13253;DHT22;6693;54.370;10.132;2022-07-29T11:15:53;29.10;1.00
13253;DHT22;6693;54.370;10.132;2022-07-29T11:18:06;29.40;1.00
13253;DHT22;6693;54.370;10.132;2022-07-29T11:20:39;29.60;99.90
13253;DHT22;6693;54.370;10.132;2022-07-29T11:22:43;29.70;99.90
13253;DHT22;6693;54.370;10.132;2022-07-29T11:25:12;29.60;99.90
13253;DHT22;6693;54.370;10.132;2022-07-29T11:27:15;29.60;99.90
13253;DHT22;6693;54.370;10.132;2022-07-29T11:29:20;29.10;99.90
13253;DHT22;6693;54.370;10.132;2022-07-29T11:31:34;29.60;99.90
13253;DHT22;6693;54.370;10.132;2022-07-29T11:33:38;29.40;99.90
13253;DHT22;6693;54.370;10.132;2022-07-29T11:35:40;29.40;99.90
13253;DHT22;6693;54.370;10.132;2022-07-29T11:37:42;29.40;99.90
13253;DHT22;6693;54.370;10.132;2022-07-29T11:39:45;29.30;99.90
13253;DHT22;6693;54.370;10.132;2022-07-29T11:41:47;29.30;99.90
13253;DHT22;6693;54.370;10.132;2022-07-29T11:43:50;29.30;99.90
13253;DHT22;6693;54.370;10.132;2022-07-29T11:45:52;29.40;99.90
13253;DHT22;6693;54.370;10.132;2022-07-29T11:47:55;29.60;99.90
13253;DHT22;6693;54.370;10.132;2022-07-29T11:50:01;29.70;99.90
13253;DHT22;6693;54.370;10.132;2022-07-29T11:52:03;30.00;99.90
13253;DHT22;6693;54.370;10.132;2022-07-29T11:54:05;30.20;99.90
13253;DHT22;6693;54.370;10.132;2022-07-29T11:56:09;30.60;99.90
13253;DHT22;6693;54.370;10.132;2022-07-29T11:58:12;30.60;99.90
13253;DHT22;6693;54.370;10.132;2022-07-29T12:00:22;30.70;99.90
13253;DHT22;6693;54.370;10.132;2022-07-29T12:02:24;30.60;99.90
13253;DHT22;6693;54.370;10.132;2022-07-29T12:04:26;30.70;99.90
13253;DHT22;6693;54.370;10.132;2022-07-29T12:06:29;30.80;99.90
13253;DHT22;6693;54.370;10.132;2022-07-29T12:08:40;31.50;99.90
13253;DHT22;6693;54.370;10.132;2022-07-29T12:10:42;31.00;99.90
13253;DHT22;6693;54.370;10.132;2022-07-29T12:12:51;31.20;99.90
13253;DHT22;6693;54.370;10.132;2022-07-29T12:14:53;31.20;99.90
13253;DHT22;6693;54.370;10.132;2022-07-29T12:16:56;31.30;99.90
13253;DHT22;6693;54.370;10.132;2022-07-29T12:18:58;31.20;99.90
13253;DHT22;6693;54.370;10.132;2022-07-29T12:21:01;31.30;99.90
13253;DHT22;6693;54.370;10.132;2022-07-29T12:23:07;31.40;99.90
13253;DHT22;6693;54.370;10.132;2022-07-29T12:25:10;31.40;99.90
13253;DHT22;6693;54.370;10.132;2022-07-29T12:27:17;31.40;99.90
13253;DHT22;6693;54.370;10.132;2022-07-29T12:29:18;31.10;99.90
13253;DHT22;6693;54.370;10.132;2022-07-29T12:31:20;30.70;99.90
13253;DHT22;6693;54.370;10.132;2022-07-29T12:33:23;30.40;99.90
13253;DHT22;6693;54.370;10.132;2022-07-29T12:35:27;30.20;99.90
13253;DHT22;6693;54.370;10.132;2022-07-29T12:37:28;30.00;99.90
13253;DHT22;6693;54.370;10.132;2022-07-29T12:39:31;29.90;99.90
13253;DHT22;6693;54.370;10.132;2022-07-29T12:41:33;29.80;99.90
13253;DHT22;6693;54.370;10.132;2022-07-29T12:43:35;29.80;99.10
13253;DHT22;6693;54.370;10.132;2022-07-29T12:45:37;29.90;99.90
13253;DHT22;6693;54.370;10.132;2022-07-29T12:47:51;29.70;93.40
13253;DHT22;6693;54.370;10.132;2022-07-29T12:50:07;29.70;97.60
13253;DHT22;6693;54.370;10.132;2022-07-29T12:52:29;29.60;69.30
13253;DHT22;6693;54.370;10.132;2022-07-29T12:54:33;29.60;71.20
13253;DHT22;6693;54.370;10.132;2022-07-29T12:56:34;29.60;63.80
13253;DHT22;6693;54.370;10.132;2022-07-29T12:58:39;29.60;60.90
13253;DHT22;6693;54.370;10.132;2022-07-29T13:00:41;29.60;47.50
13253;DHT22;6693;54.370;10.132;2022-07-29T13:02:43;29.50;86.40
13253;DHT22;6693;54.370;10.132;2022-07-29T13:04:55;29.50;67.30
13253;DHT22;6693;54.370;10.132;2022-07-29T13:07:01;29.30;48.20
13253;DHT22;6693;54.370;10.132;2022-07-29T13:09:06;29.20;34.50
13253;DHT22;6693;54.370;10.132;2022-07-29T13:11:30;29.30;41.70
13253;DHT22;6693;54.370;10.132;2022-07-29T13:13:32;29.40;52.10